createdAt,value
2023-05-17T00:00:10.331Z,3.03
2023-05-17T00:02:37.753Z,3.20
2023-05-17T00:05:05.116Z,3.00
2023-05-17T00:07:31.704Z,2.63
2023-05-17T00:09:58.107Z,3.38
2023-05-17T00:12:24.540Z,3.13
2023-05-17T00:14:51.142Z,3.17
2023-05-17T00:17:17.616Z,3.30
2023-05-17T00:19:44.242Z,3.30
2023-05-17T00:22:10.742Z,3.33
2023-05-17T00:24:37.226Z,3.30
2023-05-17T00:27:03.878Z,3.30
2023-05-17T00:29:30.390Z,3.13
2023-05-17T00:31:56.836Z,3.45
2023-05-17T00:34:23.750Z,3.30
2023-05-17T00:36:50.380Z,3.40
2023-05-17T00:39:18.283Z,3.42
2023-05-17T00:41:44.816Z,3.13
2023-05-17T00:44:11.843Z,4.03
2023-05-17T00:46:38.324Z,3.58
2023-05-17T00:49:04.965Z,3.45
2023-05-17T00:51:31.723Z,3.58
2023-05-17T00:53:59.463Z,3.05
2023-05-17T00:56:25.933Z,3.53
2023-05-17T00:58:54.121Z,3.53
2023-05-17T01:01:21.282Z,3.03
2023-05-17T01:03:48.457Z,3.38
2023-05-17T01:06:15.216Z,3.65
2023-05-17T01:08:42.826Z,3.67
2023-05-17T01:11:31.109Z,3.78
2023-05-17T01:14:35.301Z,3.58
2023-05-17T01:17:06.143Z,3.88
2023-05-17T01:19:45.415Z,4.00
2023-05-17T01:22:34.108Z,3.55
2023-05-17T01:25:37.623Z,4.10
2023-05-17T01:28:06.154Z,4.00
2023-05-17T01:30:34.335Z,3.92
2023-05-17T01:33:02.573Z,4.45
2023-05-17T01:35:29.739Z,4.05
2023-05-17T01:37:56.429Z,3.72
2023-05-17T01:40:24.396Z,4.45
2023-05-17T01:43:10.630Z,4.25
2023-05-17T01:46:05.569Z,4.30
2023-05-17T01:48:36.931Z,4.07
2023-05-17T01:51:04.263Z,4.63
2023-05-17T01:53:42.658Z,4.32
2023-05-17T01:56:14.861Z,4.88
2023-05-17T01:58:46.510Z,4.38
2023-05-17T02:01:15.803Z,4.95
2023-05-17T02:03:42.793Z,5.35
2023-05-17T02:06:09.354Z,5.75
2023-05-17T02:08:35.858Z,5.20
2023-05-17T02:11:02.392Z,5.38
2023-05-17T02:13:30.671Z,5.28
2023-05-17T02:16:00.919Z,4.85
2023-05-17T02:18:28.031Z,4.88
2023-05-17T02:20:55.034Z,5.15
2023-05-17T02:23:21.543Z,5.15
2023-05-17T02:25:48.010Z,4.85
2023-05-17T02:28:14.453Z,4.97
2023-05-17T02:30:40.896Z,4.32
2023-05-17T02:33:08.235Z,5.20
2023-05-17T02:35:34.814Z,4.82
2023-05-17T02:38:01.496Z,5.00
2023-05-17T02:40:27.932Z,5.25
2023-05-17T02:42:54.488Z,5.45
2023-05-17T02:45:20.933Z,5.13
2023-05-17T02:47:47.559Z,5.35
2023-05-17T02:50:14.413Z,5.90
2023-05-17T02:52:41.484Z,5.68
2023-05-17T02:55:08.339Z,5.07
2023-05-17T02:57:34.822Z,5.90
2023-05-17T03:00:02.052Z,5.82
2023-05-17T03:02:29.096Z,5.78
2023-05-17T03:04:55.760Z,5.65
2023-05-17T03:07:22.533Z,5.85
2023-05-17T03:09:49.302Z,5.95
2023-05-17T03:12:15.963Z,5.60
2023-05-17T03:14:42.657Z,6.70
2023-05-17T03:17:09.621Z,6.15
2023-05-17T03:19:36.168Z,6.15
2023-05-17T03:22:03.769Z,6.32
2023-05-17T03:24:32.858Z,6.97
2023-05-17T03:27:00.229Z,6.45
2023-05-17T03:29:26.856Z,6.65
2023-05-17T03:31:53.436Z,7.40
2023-05-17T03:34:19.984Z,7.55
2023-05-17T03:36:46.875Z,7.00
2023-05-17T03:39:13.618Z,7.53
2023-05-17T03:41:42.200Z,6.78
2023-05-17T03:44:09.983Z,7.35
2023-05-17T03:46:37.226Z,6.43
2023-05-17T03:49:04.706Z,7.30
2023-05-17T03:51:33.024Z,7.50
2023-05-17T03:54:01.236Z,7.72
2023-05-17T03:56:29.381Z,7.57
2023-05-17T03:58:55.818Z,7.57
2023-05-17T04:01:22.868Z,7.25
2023-05-17T04:03:49.540Z,7.10
2023-05-17T04:06:16.562Z,8.20
2023-05-17T04:08:43.911Z,7.93
2023-05-17T04:11:12.795Z,8.38
2023-05-17T04:13:40.744Z,7.93
2023-05-17T04:16:08.779Z,8.48
2023-05-17T04:18:38.008Z,8.20
2023-05-17T04:21:05.407Z,8.13
2023-05-17T04:23:34.161Z,8.55
2023-05-17T04:26:02.035Z,7.40
2023-05-17T04:28:31.120Z,7.85
2023-05-17T04:30:58.025Z,8.85
2023-05-17T04:33:24.704Z,7.53
2023-05-17T04:35:54.801Z,7.85
2023-05-17T04:38:24.088Z,8.57
2023-05-17T04:40:51.154Z,7.90
2023-05-17T04:43:17.964Z,9.63
2023-05-17T04:45:45.034Z,8.00
2023-05-17T04:48:11.902Z,9.00
2023-05-17T04:50:38.566Z,8.25
2023-05-17T04:53:05.100Z,8.07
2023-05-17T04:55:34.631Z,8.52
2023-05-17T04:58:01.159Z,8.88
2023-05-17T05:00:28.098Z,8.32
2023-05-17T05:03:01.410Z,9.00
2023-05-17T05:05:28.373Z,9.27
2023-05-17T05:07:55.171Z,8.70
2023-05-17T05:10:21.793Z,9.32
2023-05-17T05:12:48.636Z,8.65
2023-05-17T05:15:15.647Z,9.85
2023-05-17T05:17:48.606Z,9.10
2023-05-17T05:20:15.667Z,8.80
2023-05-17T05:22:43.041Z,8.52
2023-05-17T05:25:10.417Z,8.38
2023-05-17T05:27:37.032Z,9.50
2023-05-17T05:30:04.127Z,9.07
2023-05-17T05:32:32.221Z,9.88
2023-05-17T05:34:58.864Z,9.45
2023-05-17T05:37:25.912Z,9.65
2023-05-17T05:39:53.298Z,9.50
2023-05-17T05:42:20.076Z,9.35
2023-05-17T05:44:46.591Z,9.63
2023-05-17T05:47:13.579Z,9.63
2023-05-17T05:49:40.036Z,8.75
2023-05-17T05:52:06.579Z,8.73
2023-05-17T05:54:36.218Z,8.10
2023-05-17T05:57:02.770Z,7.70
2023-05-17T05:59:30.495Z,8.02
2023-05-17T06:01:58.858Z,8.43
2023-05-17T06:04:33.065Z,6.85
2023-05-17T06:07:10.846Z,7.32
2023-05-17T06:09:38.429Z,7.30
2023-05-17T06:12:05.300Z,7.13
2023-05-17T06:14:31.748Z,6.40
2023-05-17T06:16:58.207Z,6.15
2023-05-17T06:19:25.122Z,5.30
2023-05-17T06:21:51.720Z,4.57
2023-05-17T06:24:18.203Z,4.13
2023-05-17T06:26:44.738Z,4.18
2023-05-17T06:29:11.183Z,4.60
2023-05-17T06:31:37.648Z,4.30
2023-05-17T06:34:04.269Z,4.40
2023-05-17T06:36:32.395Z,4.60
2023-05-17T06:38:59.620Z,3.65
2023-05-17T06:41:26.248Z,3.75
2023-05-17T06:43:52.673Z,3.05
2023-05-17T06:46:19.116Z,2.85
2023-05-17T06:48:47.390Z,2.92
2023-05-17T06:51:15.874Z,3.30
2023-05-17T06:53:42.365Z,2.80
2023-05-17T06:56:08.834Z,3.03
2023-05-17T06:58:35.612Z,2.80
2023-05-17T07:01:02.103Z,2.63
2023-05-17T07:03:28.669Z,2.50
2023-05-17T07:05:55.210Z,2.67
2023-05-17T07:08:21.749Z,2.70
2023-05-17T07:10:51.725Z,3.38
2023-05-17T07:13:18.870Z,2.95
2023-05-17T07:15:46.175Z,2.97
2023-05-17T07:18:12.738Z,3.28
2023-05-17T07:20:39.283Z,3.65
2023-05-17T07:23:05.972Z,3.67
2023-05-17T07:25:32.937Z,3.03
2023-05-17T07:27:59.662Z,2.63
2023-05-17T07:30:26.285Z,3.15
2023-05-17T07:32:52.800Z,2.70
2023-05-17T07:35:21.678Z,2.85
2023-05-17T07:37:48.543Z,2.97
2023-05-17T07:40:15.413Z,2.53
2023-05-17T07:42:41.832Z,2.50
2023-05-17T07:45:08.962Z,3.38
2023-05-17T07:47:35.575Z,2.47
2023-05-17T07:50:03.770Z,2.53
2023-05-17T07:52:30.253Z,2.85
2023-05-17T07:54:56.663Z,2.42
2023-05-17T07:57:23.225Z,2.40
2023-05-17T07:59:49.657Z,2.40
2023-05-17T08:02:16.873Z,2.85
2023-05-17T08:04:43.420Z,2.25
2023-05-17T08:07:09.874Z,2.53
2023-05-17T08:09:36.365Z,2.10
2023-05-17T08:12:03.788Z,2.78
2023-05-17T08:14:30.271Z,2.75
2023-05-17T08:16:56.703Z,2.05
2023-05-17T08:19:23.252Z,2.75
2023-05-17T08:21:49.846Z,2.65
2023-05-17T08:24:17.540Z,2.55
2023-05-17T08:26:44.030Z,2.17
2023-05-17T08:29:10.934Z,2.30
2023-05-17T08:31:37.486Z,2.20
2023-05-17T08:34:04.158Z,1.92
2023-05-17T08:36:30.766Z,2.42
2023-05-17T08:38:57.246Z,2.80
2023-05-17T08:41:24.464Z,2.38
2023-05-17T08:43:51.606Z,2.33
2023-05-17T08:46:21.729Z,2.35
2023-05-17T08:48:51.856Z,2.13
2023-05-17T08:51:19.837Z,2.13
2023-05-17T08:53:47.189Z,2.40
2023-05-17T08:56:16.377Z,2.65
2023-05-17T08:58:55.485Z,2.15
2023-05-17T09:01:26.533Z,1.95
2023-05-17T09:03:54.682Z,2.55
2023-05-17T09:06:22.594Z,2.20
2023-05-17T09:08:54.440Z,1.85
2023-05-17T09:11:29.284Z,2.03
2023-05-17T09:14:00.377Z,2.15
2023-05-17T09:16:36.201Z,1.90
2023-05-17T09:19:07.450Z,2.30
2023-05-17T09:21:36.199Z,2.10
2023-05-17T09:24:07.051Z,2.47
2023-05-17T09:26:45.698Z,2.20
2023-05-17T09:29:14.913Z,2.33
2023-05-17T09:31:41.999Z,2.35
2023-05-17T09:34:09.112Z,1.85
2023-05-17T09:36:38.433Z,2.00
2023-05-17T09:39:07.879Z,1.83
2023-05-17T09:41:47.379Z,2.10
2023-05-17T09:44:15.436Z,1.67
2023-05-17T09:46:44.708Z,2.10
2023-05-17T09:49:12.348Z,1.60
2023-05-17T09:51:43.281Z,2.25
2023-05-17T09:54:10.974Z,1.90
2023-05-17T09:56:38.196Z,2.53
2023-05-17T09:59:14.439Z,1.95
2023-05-17T10:01:42.565Z,2.13
2023-05-17T10:04:10.699Z,2.42
2023-05-17T10:06:46.454Z,1.52
2023-05-17T10:09:17.116Z,2.17
2023-05-17T10:11:46.700Z,2.08
2023-05-17T10:14:33.721Z,1.95
2023-05-17T10:17:03.434Z,1.92
2023-05-17T10:19:30.723Z,1.80
2023-05-17T10:22:05.182Z,2.03
2023-05-17T10:24:46.459Z,1.80
2023-05-17T10:27:13.314Z,2.00
2023-05-17T10:29:41.179Z,1.70
2023-05-17T10:32:08.044Z,1.42
2023-05-17T10:34:39.496Z,1.88
2023-05-17T10:37:06.730Z,1.70
2023-05-17T10:39:34.786Z,1.60
2023-05-17T10:42:14.265Z,1.83
2023-05-17T10:44:42.561Z,1.65
2023-05-17T10:47:11.110Z,1.70
2023-05-17T10:49:39.578Z,1.67
2023-05-17T10:52:32.160Z,1.90
2023-05-17T10:54:59.562Z,2.30
2023-05-17T10:57:49.975Z,2.10
2023-05-17T11:00:27.647Z,1.90
2023-05-17T11:03:12.229Z,1.77
2023-05-17T11:05:43.679Z,2.20
2023-05-17T11:08:17.919Z,2.15
2023-05-17T11:11:14.017Z,2.00
2023-05-17T11:13:54.165Z,1.50
2023-05-17T11:16:22.427Z,2.15
2023-05-17T11:18:54.048Z,2.10
2023-05-17T11:21:22.628Z,1.50
2023-05-17T11:23:56.350Z,1.38
2023-05-17T11:26:34.140Z,1.83
2023-05-17T11:29:04.866Z,1.50
2023-05-17T11:31:36.806Z,1.40
2023-05-17T11:34:04.559Z,1.42
2023-05-17T11:36:32.271Z,1.55
2023-05-17T11:39:11.931Z,1.20
2023-05-17T11:41:41.505Z,1.25
2023-05-17T11:44:11.296Z,1.10
2023-05-17T11:46:39.192Z,1.17
2023-05-17T11:49:09.126Z,1.50
2023-05-17T11:51:36.402Z,1.10
2023-05-17T11:54:04.167Z,1.73
2023-05-17T11:56:43.556Z,1.30
2023-05-17T11:59:10.862Z,1.23
2023-05-17T12:01:47.545Z,1.77
2023-05-17T12:04:14.459Z,1.45
2023-05-17T12:06:41.411Z,1.38
2023-05-17T12:09:10.872Z,1.23
2023-05-17T12:11:39.433Z,2.03
2023-05-17T12:14:06.535Z,1.35
2023-05-17T12:16:36.285Z,1.40
2023-05-17T12:19:03.805Z,1.15
2023-05-17T12:21:30.440Z,1.02
2023-05-17T12:23:56.883Z,1.13
2023-05-17T12:26:23.631Z,1.38
2023-05-17T12:28:58.558Z,1.55
2023-05-17T12:31:38.271Z,1.55
2023-05-17T12:34:06.557Z,1.30
2023-05-17T12:36:34.005Z,1.30
2023-05-17T12:39:01.568Z,1.35
2023-05-17T12:41:30.002Z,1.58
2023-05-17T12:44:06.228Z,1.20
2023-05-17T12:46:40.895Z,1.30
2023-05-17T12:49:12.290Z,1.58
2023-05-17T12:51:41.125Z,1.10
2023-05-17T12:54:07.781Z,0.80
2023-05-17T12:56:34.292Z,1.20
2023-05-17T12:59:25.528Z,1.02
2023-05-17T13:01:55.663Z,0.93
2023-05-17T13:04:31.591Z,1.58
2023-05-17T13:07:01.335Z,1.20
2023-05-17T13:09:33.432Z,1.48
2023-05-17T13:12:02.094Z,1.23
2023-05-17T13:14:46.548Z,1.20
2023-05-17T13:17:21.028Z,1.17
2023-05-17T13:19:47.716Z,1.40
2023-05-17T13:22:15.616Z,1.00
2023-05-17T13:24:43.967Z,1.25
2023-05-17T13:27:11.805Z,1.73
2023-05-17T13:29:41.529Z,1.17
2023-05-17T13:32:09.939Z,1.50
2023-05-17T13:34:36.663Z,1.33
2023-05-17T13:37:04.163Z,1.63
2023-05-17T13:39:30.783Z,1.50
2023-05-17T13:41:58.057Z,1.70
2023-05-17T13:44:24.981Z,1.25
2023-05-17T13:46:51.555Z,1.38
2023-05-17T13:49:18.263Z,1.40
2023-05-17T13:51:45.853Z,1.25
2023-05-17T13:54:12.617Z,1.10
2023-05-17T13:56:39.224Z,1.20
2023-05-17T13:59:05.752Z,1.60
2023-05-17T14:01:32.260Z,1.77
2023-05-17T14:04:00.580Z,1.20
2023-05-17T14:06:27.524Z,1.38
2023-05-17T14:08:55.369Z,1.60
2023-05-17T14:11:21.926Z,1.67
2023-05-17T14:13:48.363Z,0.95
2023-05-17T14:16:14.949Z,1.33
2023-05-17T14:18:41.653Z,1.20
2023-05-17T14:21:08.407Z,1.10
2023-05-17T14:23:35.444Z,1.42
2023-05-17T14:26:04.976Z,1.25
2023-05-17T14:28:31.491Z,1.20
2023-05-17T14:30:57.951Z,1.77
2023-05-17T14:33:25.650Z,1.27
2023-05-17T14:35:52.264Z,1.63
2023-05-17T14:38:20.333Z,1.38
2023-05-17T14:40:46.909Z,1.45
2023-05-17T14:43:13.402Z,1.10
2023-05-17T14:45:39.886Z,1.13
2023-05-17T14:48:06.663Z,1.80
2023-05-17T14:50:34.577Z,1.60
2023-05-17T14:53:01.078Z,1.23
2023-05-17T14:55:27.692Z,1.52
2023-05-17T14:57:54.719Z,1.15
2023-05-17T15:00:22.269Z,1.38
2023-05-17T15:02:48.778Z,1.85
2023-05-17T15:05:15.308Z,2.03
2023-05-17T15:07:42.304Z,1.88
2023-05-17T15:10:10.287Z,1.70
2023-05-17T15:12:36.761Z,2.28
2023-05-17T15:15:03.417Z,1.90
2023-05-17T15:17:29.906Z,1.50
2023-05-17T15:19:56.682Z,1.67
2023-05-17T15:22:24.197Z,1.85
2023-05-17T15:24:51.514Z,2.10
2023-05-17T15:27:18.344Z,1.83
2023-05-17T15:29:44.853Z,1.70
2023-05-17T15:32:11.459Z,1.70
2023-05-17T15:34:38.030Z,2.03
2023-05-17T15:37:04.565Z,1.98
2023-05-17T15:39:31.299Z,1.77
2023-05-17T15:41:57.876Z,2.42
2023-05-17T15:44:24.429Z,2.17
2023-05-17T15:46:50.940Z,1.80
2023-05-17T15:49:17.400Z,1.80
2023-05-17T15:51:44.165Z,1.67
2023-05-17T15:54:10.663Z,2.08
2023-05-17T15:56:38.242Z,2.30
2023-05-17T15:59:05.619Z,2.10
2023-05-17T16:01:32.082Z,1.92
2023-05-17T16:03:58.642Z,1.92
2023-05-17T16:06:25.217Z,2.17
2023-05-17T16:08:51.683Z,1.95
2023-05-17T16:11:18.139Z,1.95
2023-05-17T16:13:44.571Z,2.45
2023-05-17T16:16:13.251Z,1.92
2023-05-17T16:18:39.999Z,1.80
2023-05-17T16:21:07.781Z,2.00
2023-05-17T16:23:34.401Z,2.08
2023-05-17T16:26:01.379Z,2.15
2023-05-17T16:28:28.174Z,2.00
2023-05-17T16:30:54.759Z,1.90
2023-05-17T16:33:21.483Z,2.10
2023-05-17T16:35:51.565Z,2.22
2023-05-17T16:38:18.117Z,2.00
2023-05-17T16:40:44.618Z,1.80
2023-05-17T16:43:15.708Z,2.30
2023-05-17T16:45:45.473Z,1.83
2023-05-17T16:48:14.164Z,2.35
2023-05-17T16:50:41.777Z,1.98
2023-05-17T16:53:08.632Z,2.50
2023-05-17T16:55:36.230Z,2.30
2023-05-17T16:58:02.778Z,2.10
2023-05-17T17:00:29.985Z,2.10
2023-05-17T17:02:58.146Z,2.20
2023-05-17T17:05:25.118Z,2.08
2023-05-17T17:07:51.625Z,1.95
2023-05-17T17:10:19.920Z,2.15
2023-05-17T17:12:48.105Z,2.25
2023-05-17T17:15:15.476Z,2.42
2023-05-17T17:17:42.508Z,2.20
2023-05-17T17:20:09.530Z,2.33
2023-05-17T17:22:36.104Z,1.90
2023-05-17T17:25:02.596Z,1.85
2023-05-17T17:27:29.118Z,2.58
2023-05-17T17:29:55.796Z,2.00
2023-05-17T17:32:22.353Z,1.90
2023-05-17T17:34:48.932Z,2.35
2023-05-17T17:37:16.075Z,2.00
2023-05-17T17:39:42.649Z,2.00
2023-05-17T17:42:10.185Z,2.05
2023-05-17T17:44:36.695Z,2.35
2023-05-17T17:47:03.272Z,2.42
2023-05-17T17:49:30.136Z,2.03
2023-05-17T17:51:58.107Z,2.00
2023-05-17T17:54:25.014Z,2.50
2023-05-17T17:56:52.026Z,2.72
2023-05-17T17:59:18.453Z,2.30
2023-05-17T18:01:45.026Z,1.80
2023-05-17T18:04:13.318Z,2.55
2023-05-17T18:06:41.713Z,2.55
2023-05-17T18:09:08.637Z,2.10
2023-05-17T18:11:35.182Z,2.20
2023-05-17T18:14:02.444Z,2.80
2023-05-17T18:16:29.055Z,2.72
2023-05-17T18:18:55.587Z,2.90
2023-05-17T18:21:22.127Z,2.63
2023-05-17T18:23:48.529Z,2.10
2023-05-17T18:26:14.956Z,2.47
2023-05-17T18:28:42.851Z,2.30
2023-05-17T18:31:09.568Z,2.67
2023-05-17T18:33:36.012Z,2.17
2023-05-17T18:36:02.600Z,2.65
2023-05-17T18:38:29.958Z,2.22
2023-05-17T18:40:56.853Z,2.53
2023-05-17T18:43:23.480Z,2.00
2023-05-17T18:45:51.190Z,2.30
2023-05-17T18:48:18.362Z,2.00
2023-05-17T18:50:44.880Z,2.47
2023-05-17T18:53:12.723Z,2.40
2023-05-17T18:55:39.149Z,2.60
2023-05-17T18:58:05.599Z,2.42
2023-05-17T19:00:32.210Z,2.30
2023-05-17T19:02:58.890Z,2.90
2023-05-17T19:05:25.630Z,2.10
2023-05-17T19:07:52.083Z,1.95
2023-05-17T19:10:19.787Z,1.80
2023-05-17T19:12:46.332Z,2.17
2023-05-17T19:15:13.071Z,2.13
2023-05-17T19:17:39.766Z,1.98
2023-05-17T19:20:07.133Z,2.38
2023-05-17T19:22:35.658Z,2.05
2023-05-17T19:25:02.412Z,2.72
2023-05-17T19:27:28.886Z,2.40
2023-05-17T19:29:55.791Z,2.22
2023-05-17T19:32:22.753Z,2.10
2023-05-17T19:34:49.777Z,2.33
2023-05-17T19:37:16.401Z,2.70
2023-05-17T19:39:42.831Z,2.70
2023-05-17T19:42:09.832Z,2.50
2023-05-17T19:44:36.276Z,2.58
2023-05-17T19:47:02.694Z,2.40
2023-05-17T19:49:29.215Z,2.10
2023-05-17T19:52:00.389Z,2.63
2023-05-17T19:54:30.322Z,2.60
2023-05-17T19:56:57.445Z,1.92
2023-05-17T19:59:23.945Z,2.50
2023-05-17T20:01:50.538Z,2.40
2023-05-17T20:04:17.153Z,2.50
2023-05-17T20:06:43.872Z,2.60
2023-05-17T20:09:10.454Z,2.60
2023-05-17T20:11:36.967Z,2.70
2023-05-17T20:14:03.412Z,2.92
2023-05-17T20:16:30.743Z,3.10
2023-05-17T20:19:00.779Z,3.03
2023-05-17T20:21:27.322Z,2.58
2023-05-17T20:24:00.539Z,2.70
2023-05-17T20:26:31.278Z,2.70
2023-05-17T20:28:58.891Z,2.20
2023-05-17T20:31:25.853Z,2.60
2023-05-17T20:33:52.909Z,2.65
2023-05-17T20:36:19.948Z,2.70
2023-05-17T20:38:46.727Z,2.08
2023-05-17T20:41:14.706Z,2.35
2023-05-17T20:43:45.214Z,2.15
2023-05-17T20:46:15.795Z,2.53
2023-05-17T20:48:43.131Z,2.03
2023-05-17T20:51:10.594Z,2.35
2023-05-17T20:53:37.708Z,2.08
2023-05-17T20:56:04.659Z,2.28
2023-05-17T20:58:31.395Z,2.15
2023-05-17T21:00:59.814Z,2.35
2023-05-17T21:03:33.892Z,2.40
2023-05-17T21:06:02.007Z,2.03
2023-05-17T21:08:28.598Z,2.53
2023-05-17T21:10:55.730Z,2.35
2023-05-17T21:13:23.787Z,2.28
2023-05-17T21:15:50.400Z,2.33
2023-05-17T21:18:16.979Z,2.00
2023-05-17T21:20:43.504Z,2.53
2023-05-17T21:23:10.289Z,2.38
2023-05-17T21:25:37.654Z,1.98
2023-05-17T21:28:05.691Z,2.08
2023-05-17T21:30:32.224Z,2.35
2023-05-17T21:32:59.311Z,2.58
2023-05-17T21:35:25.883Z,2.17
2023-05-17T21:37:52.499Z,2.10
2023-05-17T21:40:19.195Z,2.55
2023-05-17T21:42:46.118Z,2.45
2023-05-17T21:45:14.548Z,2.50
2023-05-17T21:47:41.221Z,2.60
2023-05-17T21:50:07.953Z,2.67
2023-05-17T21:52:34.639Z,2.75
2023-05-17T21:55:01.183Z,2.92
2023-05-17T21:57:27.725Z,2.70
2023-05-17T21:59:54.144Z,2.60
2023-05-17T22:02:20.865Z,3.20
2023-05-17T22:04:47.367Z,2.67
2023-05-17T22:07:13.995Z,2.55
2023-05-17T22:09:40.444Z,3.22
2023-05-17T22:12:09.192Z,3.00
2023-05-17T22:14:36.375Z,2.90
2023-05-17T22:17:08.984Z,3.05
2023-05-17T22:19:40.420Z,2.87
2023-05-17T22:22:08.077Z,2.60
2023-05-17T22:24:34.890Z,2.95
2023-05-17T22:27:02.235Z,3.10
2023-05-17T22:29:29.230Z,3.58
2023-05-17T22:31:55.769Z,3.30
2023-05-17T22:34:22.300Z,3.45
2023-05-17T22:36:49.006Z,4.25
2023-05-17T22:39:15.414Z,3.35
2023-05-17T22:41:41.983Z,3.25
2023-05-17T22:44:08.442Z,2.80
2023-05-17T22:46:35.059Z,2.97
2023-05-17T22:49:01.643Z,3.08
2023-05-17T22:51:29.915Z,3.55
2023-05-17T22:53:56.772Z,3.67
2023-05-17T22:56:23.289Z,3.17
2023-05-17T22:58:49.982Z,3.13
2023-05-17T23:01:16.496Z,3.08
2023-05-17T23:03:43.040Z,3.47
2023-05-17T23:06:09.595Z,3.28
2023-05-17T23:08:36.430Z,2.90
2023-05-17T23:11:05.256Z,3.33
2023-05-17T23:13:31.691Z,2.80
2023-05-17T23:15:58.173Z,2.70
2023-05-17T23:18:27.284Z,2.50
2023-05-17T23:20:53.872Z,2.85
2023-05-17T23:23:22.892Z,2.95
2023-05-17T23:25:50.835Z,2.83
2023-05-17T23:28:18.774Z,2.20
2023-05-17T23:30:48.480Z,2.63
2023-05-17T23:33:15.428Z,2.53
2023-05-17T23:35:41.879Z,3.30
2023-05-17T23:38:08.364Z,2.83
2023-05-17T23:40:34.833Z,3.35
2023-05-17T23:43:01.281Z,3.22
2023-05-17T23:45:28.064Z,3.50
2023-05-17T23:47:54.670Z,2.50
2023-05-17T23:50:21.223Z,2.72
2023-05-17T23:52:47.888Z,2.90
2023-05-17T23:55:14.431Z,3.20
2023-05-17T23:57:42.262Z,3.08
